sensor_id;sensor_type;location;lat;lon;timestamp;P1;durP1;ratioP1;P2;durP2;ratioP2
50954;SDS011;36966;48.064;-0.792;2022-12-19T00:01:33;3.67;;;1.85;;
50954;SDS011;36966;48.064;-0.792;2022-12-19T00:03:55;3.75;;;1.65;;
50954;SDS011;36966;48.064;-0.792;2022-12-19T00:06:17;4.22;;;1.88;;
50954;SDS011;36966;48.064;-0.792;2022-12-19T00:08:39;4.68;;;2.22;;
50954;SDS011;36966;48.064;-0.792;2022-12-19T00:11:00;4.15;;;2.20;;
50954;SDS011;36966;48.064;-0.792;2022-12-19T00:13:21;4.05;;;2.08;;
50954;SDS011;36966;48.064;-0.792;2022-12-19T00:15:40;5.10;;;2.42;;
50954;SDS011;36966;48.064;-0.792;2022-12-19T00:17:59;5.00;;;2.20;;
50954;SDS011;36966;48.064;-0.792;2022-12-19T00:20:19;4.93;;;2.40;;
50954;SDS011;36966;48.064;-0.792;2022-12-19T00:22:39;5.75;;;2.17;;
50954;SDS011;36966;48.064;-0.792;2022-12-19T00:24:58;5.20;;;2.58;;
50954;SDS011;36966;48.064;-0.792;2022-12-19T00:27:17;6.35;;;2.65;;
50954;SDS011;36966;48.064;-0.792;2022-12-19T00:29:36;4.90;;;2.08;;
50954;SDS011;36966;48.064;-0.792;2022-12-19T00:31:55;3.67;;;1.85;;
50954;SDS011;36966;48.064;-0.792;2022-12-19T00:34:16;6.43;;;2.10;;
50954;SDS011;36966;48.064;-0.792;2022-12-19T00:36:35;4.95;;;2.38;;
50954;SDS011;36966;48.064;-0.792;2022-12-19T00:38:55;4.60;;;1.98;;
50954;SDS011;36966;48.064;-0.792;2022-12-19T00:41:16;4.50;;;1.73;;
50954;SDS011;36966;48.064;-0.792;2022-12-19T00:43:40;10.10;;;2.28;;
50954;SDS011;36966;48.064;-0.792;2022-12-19T00:46:05;5.10;;;2.03;;
50954;SDS011;36966;48.064;-0.792;2022-12-19T00:48:26;8.27;;;2.63;;
50954;SDS011;36966;48.064;-0.792;2022-12-19T00:50:45;5.63;;;2.70;;
50954;SDS011;36966;48.064;-0.792;2022-12-19T00:53:04;6.63;;;2.35;;
50954;SDS011;36966;48.064;-0.792;2022-12-19T00:55:24;6.38;;;2.78;;
50954;SDS011;36966;48.064;-0.792;2022-12-19T00:57:43;6.68;;;1.92;;
50954;SDS011;36966;48.064;-0.792;2022-12-19T01:00:02;4.88;;;1.60;;
50954;SDS011;36966;48.064;-0.792;2022-12-19T01:02:22;4.75;;;2.42;;
50954;SDS011;36966;48.064;-0.792;2022-12-19T01:04:41;4.15;;;1.80;;
50954;SDS011;36966;48.064;-0.792;2022-12-19T01:07:01;5.53;;;2.17;;
50954;SDS011;36966;48.064;-0.792;2022-12-19T01:09:23;3.38;;;1.92;;
50954;SDS011;36966;48.064;-0.792;2022-12-19T01:11:42;6.93;;;2.70;;
50954;SDS011;36966;48.064;-0.792;2022-12-19T01:14:20;5.82;;;2.17;;
50954;SDS011;36966;48.064;-0.792;2022-12-19T01:16:39;10.52;;;3.72;;
50954;SDS011;36966;48.064;-0.792;2022-12-19T01:18:58;7.65;;;2.95;;
50954;SDS011;36966;48.064;-0.792;2022-12-19T01:21:18;6.05;;;2.95;;
50954;SDS011;36966;48.064;-0.792;2022-12-19T01:23:37;7.20;;;2.17;;
50954;SDS011;36966;48.064;-0.792;2022-12-19T01:25:56;6.10;;;3.28;;
50954;SDS011;36966;48.064;-0.792;2022-12-19T01:28:16;8.07;;;2.88;;
50954;SDS011;36966;48.064;-0.792;2022-12-19T01:30:37;9.63;;;3.65;;
50954;SDS011;36966;48.064;-0.792;2022-12-19T01:32:58;12.60;;;4.45;;
50954;SDS011;36966;48.064;-0.792;2022-12-19T01:35:18;8.45;;;3.78;;
50954;SDS011;36966;48.064;-0.792;2022-12-19T01:37:37;6.40;;;2.60;;
50954;SDS011;36966;48.064;-0.792;2022-12-19T01:39:57;3.13;;;2.00;;
50954;SDS011;36966;48.064;-0.792;2022-12-19T01:42:20;5.72;;;2.03;;
50954;SDS011;36966;48.064;-0.792;2022-12-19T01:47:16;4.80;;;1.85;;
50954;SDS011;36966;48.064;-0.792;2022-12-19T01:49:35;4.75;;;2.05;;
50954;SDS011;36966;48.064;-0.792;2022-12-19T01:51:56;2.58;;;1.73;;
50954;SDS011;36966;48.064;-0.792;2022-12-19T01:54:20;3.03;;;1.60;;
50954;SDS011;36966;48.064;-0.792;2022-12-19T01:56:45;2.10;;;1.20;;
50954;SDS011;36966;48.064;-0.792;2022-12-19T01:59:09;2.63;;;1.90;;
50954;SDS011;36966;48.064;-0.792;2022-12-19T02:01:39;3.53;;;1.38;;
50954;SDS011;36966;48.064;-0.792;2022-12-19T02:04:00;2.35;;;1.25;;
50954;SDS011;36966;48.064;-0.792;2022-12-19T02:06:20;1.80;;;0.95;;
50954;SDS011;36966;48.064;-0.792;2022-12-19T02:08:40;1.10;;;1.00;;
50954;SDS011;36966;48.064;-0.792;2022-12-19T02:11:02;3.70;;;2.10;;
50954;SDS011;36966;48.064;-0.792;2022-12-19T02:13:21;3.10;;;0.93;;
50954;SDS011;36966;48.064;-0.792;2022-12-19T02:15:48;2.78;;;1.33;;
50954;SDS011;36966;48.064;-0.792;2022-12-19T02:18:26;3.70;;;1.38;;
50954;SDS011;36966;48.064;-0.792;2022-12-19T02:23:52;4.07;;;1.20;;
50954;SDS011;36966;48.064;-0.792;2022-12-19T02:29:02;5.07;;;1.40;;
50954;SDS011;36966;48.064;-0.792;2022-12-19T02:31:45;2.00;;;1.20;;
50954;SDS011;36966;48.064;-0.792;2022-12-19T02:36:45;4.38;;;1.38;;
50954;SDS011;36966;48.064;-0.792;2022-12-19T02:41:50;4.05;;;1.27;;
50954;SDS011;36966;48.064;-0.792;2022-12-19T02:46:40;2.88;;;1.17;;
50954;SDS011;36966;48.064;-0.792;2022-12-19T02:49:01;4.95;;;1.30;;
50954;SDS011;36966;48.064;-0.792;2022-12-19T02:51:21;3.53;;;1.75;;
50954;SDS011;36966;48.064;-0.792;2022-12-19T02:53:40;2.03;;;1.20;;
50954;SDS011;36966;48.064;-0.792;2022-12-19T02:58:31;4.32;;;1.65;;
50954;SDS011;36966;48.064;-0.792;2022-12-19T03:09:46;1.70;;;1.00;;
50954;SDS011;36966;48.064;-0.792;2022-12-19T03:12:28;4.60;;;1.67;;
50954;SDS011;36966;48.064;-0.792;2022-12-19T03:14:52;2.55;;;1.58;;
50954;SDS011;36966;48.064;-0.792;2022-12-19T03:17:14;3.63;;;1.95;;
50954;SDS011;36966;48.064;-0.792;2022-12-19T03:19:34;2.83;;;1.33;;
50954;SDS011;36966;48.064;-0.792;2022-12-19T03:21:55;2.65;;;1.73;;
50954;SDS011;36966;48.064;-0.792;2022-12-19T03:24:15;5.63;;;1.67;;
50954;SDS011;36966;48.064;-0.792;2022-12-19T03:26:37;2.72;;;1.08;;
50954;SDS011;36966;48.064;-0.792;2022-12-19T03:29:07;3.33;;;1.50;;
50954;SDS011;36966;48.064;-0.792;2022-12-19T03:31:58;2.72;;;1.55;;
50954;SDS011;36966;48.064;-0.792;2022-12-19T03:34:23;6.68;;;2.17;;
50954;SDS011;36966;48.064;-0.792;2022-12-19T03:36:51;3.83;;;2.17;;
50954;SDS011;36966;48.064;-0.792;2022-12-19T03:39:18;4.63;;;1.60;;
50954;SDS011;36966;48.064;-0.792;2022-12-19T03:41:38;3.72;;;1.70;;
50954;SDS011;36966;48.064;-0.792;2022-12-19T03:44:20;4.80;;;2.03;;
50954;SDS011;36966;48.064;-0.792;2022-12-19T03:46:43;1.60;;;1.13;;
50954;SDS011;36966;48.064;-0.792;2022-12-19T03:49:08;4.00;;;1.38;;
50954;SDS011;36966;48.064;-0.792;2022-12-19T03:54:05;3.35;;;1.67;;
50954;SDS011;36966;48.064;-0.792;2022-12-19T03:56:34;3.33;;;1.70;;
50954;SDS011;36966;48.064;-0.792;2022-12-19T03:59:21;2.20;;;1.58;;
50954;SDS011;36966;48.064;-0.792;2022-12-19T04:01:46;2.35;;;1.17;;
50954;SDS011;36966;48.064;-0.792;2022-12-19T04:04:07;2.30;;;1.23;;
50954;SDS011;36966;48.064;-0.792;2022-12-19T04:06:28;2.42;;;1.38;;
50954;SDS011;36966;48.064;-0.792;2022-12-19T04:08:49;3.40;;;1.40;;
50954;SDS011;36966;48.064;-0.792;2022-12-19T04:11:10;1.65;;;1.35;;
50954;SDS011;36966;48.064;-0.792;2022-12-19T04:13:38;2.88;;;1.55;;
50954;SDS011;36966;48.064;-0.792;2022-12-19T04:18:43;2.05;;;1.15;;
50954;SDS011;36966;48.064;-0.792;2022-12-19T04:21:10;2.03;;;1.65;;
50954;SDS011;36966;48.064;-0.792;2022-12-19T04:23:36;5.85;;;1.80;;
50954;SDS011;36966;48.064;-0.792;2022-12-19T04:26:01;6.70;;;1.80;;
50954;SDS011;36966;48.064;-0.792;2022-12-19T04:28:26;2.05;;;1.55;;
50954;SDS011;36966;48.064;-0.792;2022-12-19T04:30:55;2.17;;;1.17;;
50954;SDS011;36966;48.064;-0.792;2022-12-19T04:33:15;3.50;;;1.30;;
50954;SDS011;36966;48.064;-0.792;2022-12-19T04:35:34;2.47;;;1.55;;
50954;SDS011;36966;48.064;-0.792;2022-12-19T04:37:53;2.00;;;1.00;;
50954;SDS011;36966;48.064;-0.792;2022-12-19T04:40:13;5.50;;;1.15;;
50954;SDS011;36966;48.064;-0.792;2022-12-19T04:42:32;3.83;;;1.25;;
50954;SDS011;36966;48.064;-0.792;2022-12-19T04:44:52;2.25;;;1.33;;
50954;SDS011;36966;48.064;-0.792;2022-12-19T04:47:11;4.28;;;1.75;;
50954;SDS011;36966;48.064;-0.792;2022-12-19T04:49:30;5.60;;;1.35;;
50954;SDS011;36966;48.064;-0.792;2022-12-19T04:51:50;3.58;;;1.65;;
50954;SDS011;36966;48.064;-0.792;2022-12-19T04:54:09;4.10;;;1.40;;
50954;SDS011;36966;48.064;-0.792;2022-12-19T04:56:28;2.28;;;1.20;;
50954;SDS011;36966;48.064;-0.792;2022-12-19T04:58:47;4.38;;;1.05;;
50954;SDS011;36966;48.064;-0.792;2022-12-19T05:01:07;2.85;;;1.30;;
50954;SDS011;36966;48.064;-0.792;2022-12-19T05:03:27;2.95;;;1.48;;
50954;SDS011;36966;48.064;-0.792;2022-12-19T05:05:46;1.83;;;1.33;;
50954;SDS011;36966;48.064;-0.792;2022-12-19T05:08:05;2.67;;;1.08;;
50954;SDS011;36966;48.064;-0.792;2022-12-19T05:10:25;2.35;;;1.20;;
50954;SDS011;36966;48.064;-0.792;2022-12-19T05:12:44;3.85;;;1.20;;
50954;SDS011;36966;48.064;-0.792;2022-12-19T05:15:04;2.78;;;1.05;;
50954;SDS011;36966;48.064;-0.792;2022-12-19T05:17:24;2.35;;;1.08;;
50954;SDS011;36966;48.064;-0.792;2022-12-19T05:19:43;4.18;;;1.98;;
50954;SDS011;36966;48.064;-0.792;2022-12-19T05:22:02;2.90;;;1.15;;
50954;SDS011;36966;48.064;-0.792;2022-12-19T05:24:22;2.20;;;1.10;;
50954;SDS011;36966;48.064;-0.792;2022-12-19T05:26:40;2.22;;;1.10;;
50954;SDS011;36966;48.064;-0.792;2022-12-19T05:29:00;2.63;;;1.50;;
50954;SDS011;36966;48.064;-0.792;2022-12-19T05:31:19;2.58;;;1.15;;
50954;SDS011;36966;48.064;-0.792;2022-12-19T05:33:39;1.75;;;1.02;;
50954;SDS011;36966;48.064;-0.792;2022-12-19T05:35:59;4.95;;;1.63;;
50954;SDS011;36966;48.064;-0.792;2022-12-19T05:38:18;4.25;;;1.23;;
50954;SDS011;36966;48.064;-0.792;2022-12-19T05:40:38;3.38;;;1.00;;
50954;SDS011;36966;48.064;-0.792;2022-12-19T05:42:57;1.95;;;0.90;;
50954;SDS011;36966;48.064;-0.792;2022-12-19T05:45:16;1.70;;;0.95;;
50954;SDS011;36966;48.064;-0.792;2022-12-19T05:47:35;2.90;;;1.27;;
50954;SDS011;36966;48.064;-0.792;2022-12-19T05:49:55;2.38;;;1.20;;
50954;SDS011;36966;48.064;-0.792;2022-12-19T05:52:14;1.90;;;1.20;;
50954;SDS011;36966;48.064;-0.792;2022-12-19T05:54:33;5.43;;;1.17;;
50954;SDS011;36966;48.064;-0.792;2022-12-19T05:56:52;2.53;;;1.17;;
50954;SDS011;36966;48.064;-0.792;2022-12-19T05:59:11;4.13;;;1.75;;
50954;SDS011;36966;48.064;-0.792;2022-12-19T06:01:30;4.57;;;1.42;;
50954;SDS011;36966;48.064;-0.792;2022-12-19T06:03:50;2.47;;;1.13;;
50954;SDS011;36966;48.064;-0.792;2022-12-19T06:06:14;2.88;;;1.65;;
50954;SDS011;36966;48.064;-0.792;2022-12-19T06:08:35;4.85;;;1.92;;
50954;SDS011;36966;48.064;-0.792;2022-12-19T06:10:57;5.88;;;2.35;;
50954;SDS011;36966;48.064;-0.792;2022-12-19T06:13:20;5.85;;;2.72;;
50954;SDS011;36966;48.064;-0.792;2022-12-19T06:15:39;2.88;;;1.52;;
50954;SDS011;36966;48.064;-0.792;2022-12-19T06:17:58;5.80;;;2.03;;
50954;SDS011;36966;48.064;-0.792;2022-12-19T06:20:17;4.03;;;1.85;;
50954;SDS011;36966;48.064;-0.792;2022-12-19T06:22:36;5.55;;;2.35;;
50954;SDS011;36966;48.064;-0.792;2022-12-19T06:24:55;5.50;;;2.17;;
50954;SDS011;36966;48.064;-0.792;2022-12-19T06:27:15;11.02;;;4.57;;
50954;SDS011;36966;48.064;-0.792;2022-12-19T06:29:34;5.75;;;2.28;;
50954;SDS011;36966;48.064;-0.792;2022-12-19T06:31:53;9.98;;;4.50;;
50954;SDS011;36966;48.064;-0.792;2022-12-19T06:34:13;7.70;;;3.38;;
50954;SDS011;36966;48.064;-0.792;2022-12-19T06:36:32;7.20;;;3.45;;
50954;SDS011;36966;48.064;-0.792;2022-12-19T06:38:52;5.25;;;2.30;;
50954;SDS011;36966;48.064;-0.792;2022-12-19T06:41:12;10.95;;;6.13;;
50954;SDS011;36966;48.064;-0.792;2022-12-19T06:43:51;7.18;;;3.10;;
50954;SDS011;36966;48.064;-0.792;2022-12-19T06:46:10;2.42;;;1.60;;
50954;SDS011;36966;48.064;-0.792;2022-12-19T06:48:29;4.55;;;1.42;;
50954;SDS011;36966;48.064;-0.792;2022-12-19T06:50:48;5.07;;;1.30;;
50954;SDS011;36966;48.064;-0.792;2022-12-19T06:53:07;4.43;;;1.67;;
50954;SDS011;36966;48.064;-0.792;2022-12-19T06:55:26;5.35;;;1.40;;
50954;SDS011;36966;48.064;-0.792;2022-12-19T06:57:45;9.35;;;1.92;;
50954;SDS011;36966;48.064;-0.792;2022-12-19T07:00:05;4.00;;;1.52;;
50954;SDS011;36966;48.064;-0.792;2022-12-19T07:02:29;6.60;;;3.15;;
50954;SDS011;36966;48.064;-0.792;2022-12-19T07:04:50;9.02;;;4.72;;
50954;SDS011;36966;48.064;-0.792;2022-12-19T07:07:17;7.93;;;4.90;;
50954;SDS011;36966;48.064;-0.792;2022-12-19T07:09:36;8.57;;;4.57;;
50954;SDS011;36966;48.064;-0.792;2022-12-19T07:11:56;5.00;;;2.47;;
50954;SDS011;36966;48.064;-0.792;2022-12-19T07:14:15;2.30;;;1.67;;
50954;SDS011;36966;48.064;-0.792;2022-12-19T07:16:35;8.73;;;2.38;;
50954;SDS011;36966;48.064;-0.792;2022-12-19T07:18:54;2.85;;;1.63;;
50954;SDS011;36966;48.064;-0.792;2022-12-19T07:21:13;3.58;;;1.40;;
50954;SDS011;36966;48.064;-0.792;2022-12-19T07:23:32;3.83;;;1.05;;
50954;SDS011;36966;48.064;-0.792;2022-12-19T07:25:52;5.40;;;1.15;;
50954;SDS011;36966;48.064;-0.792;2022-12-19T07:28:12;2.60;;;1.60;;
50954;SDS011;36966;48.064;-0.792;2022-12-19T07:30:33;4.20;;;2.15;;
50954;SDS011;36966;48.064;-0.792;2022-12-19T07:32:53;3.00;;;1.90;;
50954;SDS011;36966;48.064;-0.792;2022-12-19T07:35:12;3.33;;;1.35;;
50954;SDS011;36966;48.064;-0.792;2022-12-19T07:37:32;2.88;;;1.80;;
50954;SDS011;36966;48.064;-0.792;2022-12-19T07:39:51;3.20;;;1.52;;
50954;SDS011;36966;48.064;-0.792;2022-12-19T07:42:10;6.80;;;1.83;;
50954;SDS011;36966;48.064;-0.792;2022-12-19T07:44:29;13.85;;;2.88;;
50954;SDS011;36966;48.064;-0.792;2022-12-19T07:46:48;4.55;;;1.30;;
50954;SDS011;36966;48.064;-0.792;2022-12-19T07:49:07;3.05;;;1.33;;
50954;SDS011;36966;48.064;-0.792;2022-12-19T07:51:27;7.00;;;2.15;;
50954;SDS011;36966;48.064;-0.792;2022-12-19T07:53:46;5.40;;;1.58;;
50954;SDS011;36966;48.064;-0.792;2022-12-19T07:56:06;4.10;;;1.70;;
50954;SDS011;36966;48.064;-0.792;2022-12-19T07:58:25;6.15;;;1.85;;
50954;SDS011;36966;48.064;-0.792;2022-12-19T08:00:52;2.15;;;1.02;;
50954;SDS011;36966;48.064;-0.792;2022-12-19T08:03:15;2.25;;;1.38;;
50954;SDS011;36966;48.064;-0.792;2022-12-19T08:05:34;2.63;;;1.27;;
50954;SDS011;36966;48.064;-0.792;2022-12-19T08:07:53;7.25;;;1.70;;
50954;SDS011;36966;48.064;-0.792;2022-12-19T08:10:13;3.78;;;1.90;;
50954;SDS011;36966;48.064;-0.792;2022-12-19T08:12:33;5.68;;;1.73;;
50954;SDS011;36966;48.064;-0.792;2022-12-19T08:14:52;6.43;;;2.65;;
50954;SDS011;36966;48.064;-0.792;2022-12-19T08:17:11;3.95;;;2.88;;
50954;SDS011;36966;48.064;-0.792;2022-12-19T08:19:31;9.13;;;2.80;;
50954;SDS011;36966;48.064;-0.792;2022-12-19T08:21:50;5.07;;;2.47;;
50954;SDS011;36966;48.064;-0.792;2022-12-19T08:24:09;6.28;;;2.08;;
50954;SDS011;36966;48.064;-0.792;2022-12-19T08:26:28;4.78;;;1.38;;
50954;SDS011;36966;48.064;-0.792;2022-12-19T08:28:48;7.47;;;1.42;;
50954;SDS011;36966;48.064;-0.792;2022-12-19T08:31:09;3.05;;;1.40;;
50954;SDS011;36966;48.064;-0.792;2022-12-19T08:33:31;3.60;;;1.25;;
50954;SDS011;36966;48.064;-0.792;2022-12-19T08:35:50;3.47;;;1.67;;
50954;SDS011;36966;48.064;-0.792;2022-12-19T08:38:09;2.63;;;1.17;;
50954;SDS011;36966;48.064;-0.792;2022-12-19T08:40:29;6.88;;;2.35;;
50954;SDS011;36966;48.064;-0.792;2022-12-19T08:42:48;7.43;;;2.80;;
50954;SDS011;36966;48.064;-0.792;2022-12-19T08:45:08;7.00;;;2.92;;
50954;SDS011;36966;48.064;-0.792;2022-12-19T08:47:27;4.22;;;2.00;;
50954;SDS011;36966;48.064;-0.792;2022-12-19T08:49:46;7.60;;;1.92;;
50954;SDS011;36966;48.064;-0.792;2022-12-19T08:52:05;2.83;;;1.48;;
50954;SDS011;36966;48.064;-0.792;2022-12-19T08:54:24;7.93;;;1.70;;
50954;SDS011;36966;48.064;-0.792;2022-12-19T08:56:45;4.10;;;1.20;;
50954;SDS011;36966;48.064;-0.792;2022-12-19T08:59:04;2.58;;;1.25;;
50954;SDS011;36966;48.064;-0.792;2022-12-19T09:01:24;4.75;;;1.20;;
50954;SDS011;36966;48.064;-0.792;2022-12-19T09:03:43;2.33;;;1.30;;
50954;SDS011;36966;48.064;-0.792;2022-12-19T09:06:04;6.53;;;1.60;;
50954;SDS011;36966;48.064;-0.792;2022-12-19T09:08:25;3.67;;;1.13;;
50954;SDS011;36966;48.064;-0.792;2022-12-19T09:10:46;5.25;;;1.75;;
50954;SDS011;36966;48.064;-0.792;2022-12-19T09:13:05;6.00;;;2.00;;
50954;SDS011;36966;48.064;-0.792;2022-12-19T09:15:24;3.38;;;1.75;;
50954;SDS011;36966;48.064;-0.792;2022-12-19T09:17:43;2.92;;;1.50;;
50954;SDS011;36966;48.064;-0.792;2022-12-19T09:20:02;3.53;;;1.60;;
50954;SDS011;36966;48.064;-0.792;2022-12-19T09:22:22;5.40;;;1.83;;
50954;SDS011;36966;48.064;-0.792;2022-12-19T09:24:41;7.95;;;1.55;;
50954;SDS011;36966;48.064;-0.792;2022-12-19T09:27:00;4.03;;;1.65;;
50954;SDS011;36966;48.064;-0.792;2022-12-19T09:29:19;4.85;;;1.90;;
50954;SDS011;36966;48.064;-0.792;2022-12-19T09:31:38;6.95;;;2.10;;
50954;SDS011;36966;48.064;-0.792;2022-12-19T09:33:58;4.80;;;1.73;;
50954;SDS011;36966;48.064;-0.792;2022-12-19T09:36:18;4.57;;;2.00;;
50954;SDS011;36966;48.064;-0.792;2022-12-19T09:38:39;7.60;;;1.67;;
50954;SDS011;36966;48.064;-0.792;2022-12-19T09:41:08;4.53;;;1.55;;
50954;SDS011;36966;48.064;-0.792;2022-12-19T09:46:38;4.70;;;1.33;;
50954;SDS011;36966;48.064;-0.792;2022-12-19T09:49:01;7.28;;;1.80;;
50954;SDS011;36966;48.064;-0.792;2022-12-19T09:51:29;3.92;;;1.27;;
50954;SDS011;36966;48.064;-0.792;2022-12-19T09:54:11;5.15;;;1.80;;
50954;SDS011;36966;48.064;-0.792;2022-12-19T09:56:39;5.07;;;1.73;;
50954;SDS011;36966;48.064;-0.792;2022-12-19T10:02:49;5.93;;;1.30;;
50954;SDS011;36966;48.064;-0.792;2022-12-19T10:04:52;4.70;;;1.38;;
50954;SDS011;36966;48.064;-0.792;2022-12-19T10:07:20;4.72;;;1.35;;
50954;SDS011;36966;48.064;-0.792;2022-12-19T10:09:40;4.68;;;1.30;;
50954;SDS011;36966;48.064;-0.792;2022-12-19T10:27:52;5.05;;;1.42;;
50954;SDS011;36966;48.064;-0.792;2022-12-19T10:30:20;5.38;;;1.60;;
50954;SDS011;36966;48.064;-0.792;2022-12-19T10:35:20;4.38;;;1.58;;
50954;SDS011;36966;48.064;-0.792;2022-12-19T10:37:44;3.45;;;1.08;;
50954;SDS011;36966;48.064;-0.792;2022-12-19T10:40:29;3.67;;;1.33;;
50954;SDS011;36966;48.064;-0.792;2022-12-19T10:45:37;4.68;;;1.15;;
50954;SDS011;36966;48.064;-0.792;2022-12-19T10:48:02;4.88;;;1.33;;
50954;SDS011;36966;48.064;-0.792;2022-12-19T10:50:24;3.15;;;1.38;;
50954;SDS011;36966;48.064;-0.792;2022-12-19T10:55:19;2.97;;;1.02;;
50954;SDS011;36966;48.064;-0.792;2022-12-19T10:57:42;6.63;;;1.30;;
50954;SDS011;36966;48.064;-0.792;2022-12-19T11:04:55;6.85;;;1.98;;
50954;SDS011;36966;48.064;-0.792;2022-12-19T11:07:19;4.07;;;2.67;;
50954;SDS011;36966;48.064;-0.792;2022-12-19T11:09:39;8.80;;;2.70;;
50954;SDS011;36966;48.064;-0.792;2022-12-19T11:14:27;8.10;;;2.50;;
50954;SDS011;36966;48.064;-0.792;2022-12-19T11:16:47;3.00;;;1.17;;
50954;SDS011;36966;48.064;-0.792;2022-12-19T11:19:12;5.22;;;1.60;;
50954;SDS011;36966;48.064;-0.792;2022-12-19T11:24:24;3.90;;;1.15;;
50954;SDS011;36966;48.064;-0.792;2022-12-19T11:26:54;3.42;;;1.63;;
50954;SDS011;36966;48.064;-0.792;2022-12-19T11:29:25;4.47;;;1.23;;
50954;SDS011;36966;48.064;-0.792;2022-12-19T11:31:58;7.15;;;1.13;;
50954;SDS011;36966;48.064;-0.792;2022-12-19T11:34:19;4.72;;;1.98;;
50954;SDS011;36966;48.064;-0.792;2022-12-19T11:42:09;10.82;;;1.67;;
50954;SDS011;36966;48.064;-0.792;2022-12-19T11:44:43;6.68;;;1.88;;
50954;SDS011;36966;48.064;-0.792;2022-12-19T11:47:54;3.38;;;1.33;;
50954;SDS011;36966;48.064;-0.792;2022-12-19T11:50:13;4.38;;;1.33;;
50954;SDS011;36966;48.064;-0.792;2022-12-19T11:55:43;7.95;;;1.50;;
50954;SDS011;36966;48.064;-0.792;2022-12-19T11:58:09;6.60;;;1.75;;
50954;SDS011;36966;48.064;-0.792;2022-12-19T12:00:29;5.32;;;1.48;;
50954;SDS011;36966;48.064;-0.792;2022-12-19T12:03:05;5.85;;;1.45;;
50954;SDS011;36966;48.064;-0.792;2022-12-19T12:19:18;4.07;;;1.52;;
50954;SDS011;36966;48.064;-0.792;2022-12-19T12:45:15;3.47;;;1.20;;
50954;SDS011;36966;48.064;-0.792;2022-12-19T12:47:38;6.70;;;1.27;;
50954;SDS011;36966;48.064;-0.792;2022-12-19T12:50:02;2.72;;;0.80;;
50954;SDS011;36966;48.064;-0.792;2022-12-19T12:54:53;4.82;;;1.10;;
50954;SDS011;36966;48.064;-0.792;2022-12-19T12:57:16;5.70;;;1.40;;
50954;SDS011;36966;48.064;-0.792;2022-12-19T12:59:46;7.93;;;1.83;;
50954;SDS011;36966;48.064;-0.792;2022-12-19T13:02:06;6.72;;;1.45;;
50954;SDS011;36966;48.064;-0.792;2022-12-19T13:04:39;6.85;;;1.30;;
50954;SDS011;36966;48.064;-0.792;2022-12-19T13:07:02;6.72;;;0.93;;
50954;SDS011;36966;48.064;-0.792;2022-12-19T13:09:37;4.32;;;1.40;;
50954;SDS011;36966;48.064;-0.792;2022-12-19T13:27:30;5.57;;;0.90;;
50954;SDS011;36966;48.064;-0.792;2022-12-19T13:29:52;4.82;;;1.83;;
50954;SDS011;36966;48.064;-0.792;2022-12-19T13:32:22;4.43;;;1.70;;
50954;SDS011;36966;48.064;-0.792;2022-12-19T13:35:00;6.82;;;1.20;;
50954;SDS011;36966;48.064;-0.792;2022-12-19T13:37:22;6.15;;;1.80;;
50954;SDS011;36966;48.064;-0.792;2022-12-19T13:42:22;10.13;;;1.77;;
50954;SDS011;36966;48.064;-0.792;2022-12-19T13:45:07;6.18;;;1.50;;
50954;SDS011;36966;48.064;-0.792;2022-12-19T13:47:34;6.47;;;1.52;;
50954;SDS011;36966;48.064;-0.792;2022-12-19T13:49:56;6.43;;;1.25;;
50954;SDS011;36966;48.064;-0.792;2022-12-19T13:52:16;2.58;;;0.95;;
50954;SDS011;36966;48.064;-0.792;2022-12-19T13:54:43;10.27;;;1.30;;
50954;SDS011;36966;48.064;-0.792;2022-12-19T13:59:47;4.93;;;1.50;;
50954;SDS011;36966;48.064;-0.792;2022-12-19T14:02:16;5.38;;;1.85;;
50954;SDS011;36966;48.064;-0.792;2022-12-19T14:04:44;5.88;;;1.38;;
50954;SDS011;36966;48.064;-0.792;2022-12-19T14:07:05;6.72;;;1.80;;
50954;SDS011;36966;48.064;-0.792;2022-12-19T14:09:44;10.30;;;1.40;;
50954;SDS011;36966;48.064;-0.792;2022-12-19T14:12:11;4.20;;;1.50;;
50954;SDS011;36966;48.064;-0.792;2022-12-19T14:15:00;9.05;;;2.00;;
50954;SDS011;36966;48.064;-0.792;2022-12-19T14:17:34;7.40;;;1.40;;
50954;SDS011;36966;48.064;-0.792;2022-12-19T14:19:53;5.55;;;1.13;;
50954;SDS011;36966;48.064;-0.792;2022-12-19T14:22:18;8.25;;;1.05;;
50954;SDS011;36966;48.064;-0.792;2022-12-19T14:24:39;7.53;;;2.03;;
50954;SDS011;36966;48.064;-0.792;2022-12-19T14:27:00;12.30;;;2.22;;
50954;SDS011;36966;48.064;-0.792;2022-12-19T14:29:25;4.43;;;1.60;;
50954;SDS011;36966;48.064;-0.792;2022-12-19T14:31:49;13.27;;;1.58;;
50954;SDS011;36966;48.064;-0.792;2022-12-19T14:34:25;4.40;;;0.98;;
50954;SDS011;36966;48.064;-0.792;2022-12-19T14:36:52;5.50;;;1.58;;
50954;SDS011;36966;48.064;-0.792;2022-12-19T14:39:17;6.47;;;2.35;;
50954;SDS011;36966;48.064;-0.792;2022-12-19T14:44:21;9.18;;;1.60;;
50954;SDS011;36966;48.064;-0.792;2022-12-19T14:46:41;9.23;;;1.17;;
50954;SDS011;36966;48.064;-0.792;2022-12-19T14:49:00;7.95;;;1.50;;
50954;SDS011;36966;48.064;-0.792;2022-12-19T14:56:21;6.80;;;0.93;;
50954;SDS011;36966;48.064;-0.792;2022-12-19T14:58:40;7.40;;;1.63;;
50954;SDS011;36966;48.064;-0.792;2022-12-19T15:01:00;7.35;;;1.73;;
50954;SDS011;36966;48.064;-0.792;2022-12-19T15:03:23;8.55;;;1.85;;
50954;SDS011;36966;48.064;-0.792;2022-12-19T15:05:46;11.05;;;1.85;;
50954;SDS011;36966;48.064;-0.792;2022-12-19T15:08:07;7.80;;;1.42;;
50954;SDS011;36966;48.064;-0.792;2022-12-19T15:10:29;5.00;;;1.42;;
50954;SDS011;36966;48.064;-0.792;2022-12-19T15:20:40;8.35;;;2.50;;
50954;SDS011;36966;48.064;-0.792;2022-12-19T15:22:59;7.75;;;2.80;;
50954;SDS011;36966;48.064;-0.792;2022-12-19T15:25:18;10.70;;;2.40;;
50954;SDS011;36966;48.064;-0.792;2022-12-19T15:27:37;9.00;;;2.40;;
50954;SDS011;36966;48.064;-0.792;2022-12-19T15:29:58;10.35;;;2.17;;
50954;SDS011;36966;48.064;-0.792;2022-12-19T15:32:17;10.75;;;3.70;;
50954;SDS011;36966;48.064;-0.792;2022-12-19T15:34:36;9.75;;;2.55;;
50954;SDS011;36966;48.064;-0.792;2022-12-19T15:37:00;6.60;;;2.47;;
50954;SDS011;36966;48.064;-0.792;2022-12-19T15:39:20;7.70;;;1.80;;
50954;SDS011;36966;48.064;-0.792;2022-12-19T15:41:40;6.05;;;2.47;;
50954;SDS011;36966;48.064;-0.792;2022-12-19T15:44:06;6.95;;;2.50;;
50954;SDS011;36966;48.064;-0.792;2022-12-19T15:46:29;12.43;;;3.22;;
50954;SDS011;36966;48.064;-0.792;2022-12-19T15:48:48;7.53;;;2.00;;
50954;SDS011;36966;48.064;-0.792;2022-12-19T15:51:12;6.25;;;1.75;;
50954;SDS011;36966;48.064;-0.792;2022-12-19T15:53:31;8.45;;;2.50;;
50954;SDS011;36966;48.064;-0.792;2022-12-19T15:55:50;5.53;;;1.88;;
50954;SDS011;36966;48.064;-0.792;2022-12-19T15:58:12;8.73;;;2.17;;
50954;SDS011;36966;48.064;-0.792;2022-12-19T16:00:33;8.07;;;2.35;;
50954;SDS011;36966;48.064;-0.792;2022-12-19T16:02:54;7.95;;;2.00;;
50954;SDS011;36966;48.064;-0.792;2022-12-19T16:05:14;11.43;;;2.45;;
50954;SDS011;36966;48.064;-0.792;2022-12-19T16:07:34;6.38;;;1.75;;
50954;SDS011;36966;48.064;-0.792;2022-12-19T16:09:53;11.30;;;2.03;;
50954;SDS011;36966;48.064;-0.792;2022-12-19T16:12:13;6.47;;;1.85;;
50954;SDS011;36966;48.064;-0.792;2022-12-19T16:14:38;5.95;;;1.90;;
50954;SDS011;36966;48.064;-0.792;2022-12-19T16:16:58;3.50;;;0.80;;
50954;SDS011;36966;48.064;-0.792;2022-12-19T16:19:25;6.30;;;1.10;;
50954;SDS011;36966;48.064;-0.792;2022-12-19T16:21:45;8.73;;;1.55;;
50954;SDS011;36966;48.064;-0.792;2022-12-19T16:24:05;4.78;;;1.60;;
50954;SDS011;36966;48.064;-0.792;2022-12-19T16:26:34;6.93;;;1.42;;
50954;SDS011;36966;48.064;-0.792;2022-12-19T16:28:58;8.02;;;1.35;;
50954;SDS011;36966;48.064;-0.792;2022-12-19T16:31:18;11.95;;;1.65;;
50954;SDS011;36966;48.064;-0.792;2022-12-19T16:33:42;6.63;;;1.27;;
50954;SDS011;36966;48.064;-0.792;2022-12-19T16:36:01;6.10;;;1.85;;
50954;SDS011;36966;48.064;-0.792;2022-12-19T16:38:21;7.03;;;2.63;;
50954;SDS011;36966;48.064;-0.792;2022-12-19T16:40:41;5.20;;;1.27;;
50954;SDS011;36966;48.064;-0.792;2022-12-19T16:43:05;5.38;;;1.73;;